Time,TemperatureF,DewpointF,PressureIn,WindDirection,WindDirectionDegrees,WindSpeedMPH,WindSpeedGustMPH,Humidity,HourlyPrecipIn,Conditions,Clouds,dailyrainin,SolarRadiationWatts/m^2,SoftwareType,DateUTC
2013-12-09 00:02:00,71.1,70.5,29.95,SE,135,0.0,0.0,98,0.00,CLR,,0.00,0.0,WeatherDisplay:10.37,2013-12-08 14:02:00,
2013-12-09 00:07:00,71.2,70.6,29.95,SE,135,2.3,2.3,98,0.00,CLR,,0.02,0.0,WeatherDisplay:10.37,2013-12-08 14:07:00,
2013-12-09 00:12:00,71.2,70.6,29.95,SE,135,1.2,1.2,98,0.02,RA,,0.02,0.0,WeatherDisplay:10.37,2013-12-08 14:12:00,
2013-12-09 00:17:00,71.6,70.7,29.95,SE,135,2.3,2.3,97,0.02,RA,,0.02,0.0,WeatherDisplay:10.37,2013-12-08 14:17:00,
2013-12-09 00:22:00,71.6,70.7,29.95,SE,135,1.2,0.0,97,0.02,CLR,,0.02,0.0,WeatherDisplay:10.37,2013-12-08 14:22:00,
2013-12-09 00:27:00,71.2,70.6,29.95,SE,135,0.0,0.0,98,0.02,CLR,,0.02,0.0,WeatherDisplay:10.37,2013-12-08 14:27:00,
2013-12-09 00:32:00,71.2,70.6,29.94,SE,135,3.5,3.5,98,0.02,CLR,,0.02,0.0,WeatherDisplay:10.37,2013-12-08 14:32:00,
2013-12-09 00:37:00,71.2,70.6,29.94,SE,135,0.0,0.0,98,0.02,CLR,,0.02,0.0,WeatherDisplay:10.37,2013-12-08 14:37:00,
2013-12-09 00:42:00,71.6,70.7,29.93,SE,135,0.0,0.0,97,0.02,CLR,,0.02,0.0,WeatherDisplay:10.37,2013-12-08 14:42:00,
2013-12-09 00:47:00,71.2,70.6,29.93,SE,135,3.5,0.0,98,0.02,CLR,,0.02,0.0,WeatherDisplay:10.37,2013-12-08 14:47:00,
2013-12-09 00:52:00,71.2,70.6,29.93,SE,135,2.3,2.3,98,0.02,CLR,,0.02,0.0,WeatherDisplay:10.37,2013-12-08 14:52:00,
2013-12-09 00:57:00,71.1,70.5,29.93,SE,135,2.3,2.3,98,0.02,CLR,,0.02,0.0,WeatherDisplay:10.37,2013-12-08 14:57:00,
2013-12-09 01:02:00,71.1,70.5,29.92,SE,135,2.3,2.3,98,0.02,CLR,,0.02,0.0,WeatherDisplay:10.37,2013-12-08 15:02:00,
2013-12-09 01:07:00,70.9,70.3,29.92,SE,135,3.5,3.5,98,0.02,CLR,,0.02,0.0,WeatherDisplay:10.37,2013-12-08 15:07:00,
2013-12-09 01:12:00,70.9,70.3,29.92,SE,135,1.2,1.2,98,0.00,CLR,,0.02,0.0,WeatherDisplay:10.37,2013-12-08 15:12:00,
2013-12-09 01:17:00,70.9,70.3,29.92,SE,135,1.2,0.0,98,0.00,CLR,,0.02,0.0,WeatherDisplay:10.37,2013-12-08 15:17:00,
2013-12-09 01:22:00,70.9,70.3,29.92,SE,135,0.0,0.0,98,0.00,CLR,,0.02,0.0,WeatherDisplay:10.37,2013-12-08 15:22:00,
2013-12-09 01:28:00,70.7,70.1,29.92,SE,135,0.0,0.0,98,0.00,CLR,,0.02,0.0,WeatherDisplay:10.37,2013-12-08 15:28:00,
2013-12-09 01:33:00,70.3,69.7,29.91,SE,135,0.0,0.0,98,0.00,CLR,,0.02,0.0,WeatherDisplay:10.37,2013-12-08 15:33:00,
2013-12-09 01:38:00,70.3,69.7,29.91,SE,135,0.0,0.0,98,0.00,CLR,,0.02,0.0,WeatherDisplay:10.37,2013-12-08 15:38:00,
2013-12-09 01:43:00,70.5,69.9,29.91,SE,135,2.3,2.3,98,0.00,CLR,,0.02,0.0,WeatherDisplay:10.37,2013-12-08 15:43:00,
2013-12-09 01:48:00,70.3,69.7,29.91,SE,135,3.5,3.5,98,0.00,CLR,,0.02,0.0,WeatherDisplay:10.37,2013-12-08 15:48:00,
2013-12-09 01:53:00,70.5,69.9,29.91,SE,135,6.9,0.0,98,0.00,CLR,,0.02,0.0,WeatherDisplay:10.37,2013-12-08 15:53:00,
2013-12-09 01:58:00,70.5,69.9,29.91,SE,135,3.5,3.5,98,0.00,CLR,,0.02,0.0,WeatherDisplay:10.37,2013-12-08 15:58:00,
2013-12-09 02:03:00,70.7,70.1,29.91,SE,135,5.8,5.8,98,0.00,CLR,,0.02,0.0,WeatherDisplay:10.37,2013-12-08 16:03:00,
2013-12-09 02:08:00,70.5,69.9,29.91,SE,135,3.5,3.5,98,0.00,CLR,,0.02,0.0,WeatherDisplay:10.37,2013-12-08 16:08:00,
2013-12-09 02:13:00,70.3,69.7,29.91,SE,135,2.3,2.3,98,0.00,CLR,,0.02,0.0,WeatherDisplay:10.37,2013-12-08 16:13:00,
2013-12-09 02:18:00,69.8,68.9,29.91,SE,135,0.0,0.0,97,0.00,CLR,,0.02,0.0,WeatherDisplay:10.37,2013-12-08 16:18:00,
2013-12-09 02:23:00,69.8,69.2,29.90,SE,135,0.0,0.0,98,0.00,CLR,,0.02,0.0,WeatherDisplay:10.37,2013-12-08 16:23:00,
2013-12-09 02:28:00,69.8,69.2,29.90,SE,135,0.0,0.0,98,0.00,CLR,,0.02,0.0,WeatherDisplay:10.37,2013-12-08 16:28:00,
2013-12-09 02:33:00,69.4,69.1,29.90,SE,135,0.0,0.0,99,0.00,CLR,,0.02,0.0,WeatherDisplay:10.37,2013-12-08 16:33:00,
2013-12-09 02:38:00,69.6,69.3,29.90,SE,135,1.2,0.0,99,0.00,CLR,,0.02,0.0,WeatherDisplay:10.37,2013-12-08 16:38:00,
2013-12-09 02:43:00,69.3,69.0,29.90,SE,135,0.0,0.0,99,0.00,CLR,,0.02,0.0,WeatherDisplay:10.37,2013-12-08 16:43:00,
2013-12-09 02:48:00,69.3,69.0,29.90,SE,135,1.2,1.2,99,0.00,CLR,,0.02,0.0,WeatherDisplay:10.37,2013-12-08 16:48:00,
2013-12-09 02:53:00,69.1,68.8,29.90,SE,135,0.7,0.0,99,0.00,CLR,,0.02,0.0,WeatherDisplay:10.37,2013-12-08 16:53:00,
2013-12-09 02:58:00,69.1,68.8,29.90,SE,135,0.0,0.0,99,0.00,CLR,,0.02,0.0,WeatherDisplay:10.37,2013-12-08 16:58:00,
2013-12-09 03:03:00,69.1,68.8,29.90,SE,135,0.0,0.0,99,0.00,CLR,,0.02,0.0,WeatherDisplay:10.37,2013-12-08 17:03:00,
2013-12-09 03:08:00,68.9,68.6,29.90,SE,135,0.0,0.0,99,0.00,CLR,,0.02,0.0,WeatherDisplay:10.37,2013-12-08 17:08:00,
2013-12-09 03:13:00,68.7,68.4,29.89,SE,135,0.0,0.0,99,0.00,CLR,,0.02,0.0,WeatherDisplay:10.37,2013-12-08 17:13:00,
2013-12-09 03:18:00,68.4,68.1,29.90,SE,135,0.0,0.0,99,0.00,CLR,,0.02,0.0,WeatherDisplay:10.37,2013-12-08 17:18:00,
2013-12-09 03:23:00,68.2,67.9,29.89,SE,135,0.0,0.0,99,0.00,CLR,,0.02,0.0,WeatherDisplay:10.37,2013-12-08 17:23:00,
2013-12-09 03:28:00,68.2,67.9,29.89,SE,135,0.0,0.0,99,0.00,CLR,,0.02,0.0,WeatherDisplay:10.37,2013-12-08 17:28:00,
2013-12-09 03:33:00,68.0,67.7,29.89,SE,135,0.0,0.0,99,0.00,CLR,,0.02,0.0,WeatherDisplay:10.37,2013-12-08 17:33:00,
2013-12-09 03:38:00,67.8,67.5,29.89,SE,135,0.0,0.0,99,0.00,CLR,,0.02,0.0,WeatherDisplay:10.37,2013-12-08 17:38:00,
2013-12-09 03:43:00,68.0,67.7,29.89,SE,135,0.0,0.0,99,0.00,CLR,,0.02,0.0,WeatherDisplay:10.37,2013-12-08 17:43:00,
2013-12-09 03:48:00,67.8,67.5,29.89,SE,135,0.0,0.0,99,0.00,CLR,,0.02,0.0,WeatherDisplay:10.37,2013-12-08 17:48:00,
2013-12-09 03:53:00,67.8,67.5,29.89,SE,135,0.0,0.0,99,0.00,CLR,,0.02,0.0,WeatherDisplay:10.37,2013-12-08 17:53:00,
2013-12-09 03:58:00,67.6,67.3,29.90,SE,135,0.0,0.0,99,0.00,CLR,,0.02,0.0,WeatherDisplay:10.37,2013-12-08 17:58:00,
2013-12-09 04:03:00,67.5,67.2,29.89,SE,135,0.0,0.0,99,0.00,CLR,,0.02,0.0,WeatherDisplay:10.37,2013-12-08 18:03:00,
2013-12-09 04:08:00,67.3,67.0,29.90,SE,135,1.2,0.0,99,0.00,CLR,,0.02,0.0,WeatherDisplay:10.37,2013-12-08 18:08:00,
2013-12-09 04:13:00,67.3,67.0,29.90,SE,135,0.0,0.0,99,0.00,CLR,,0.02,0.0,WeatherDisplay:10.37,2013-12-08 18:13:00,
2013-12-09 04:18:00,67.3,67.0,29.90,SE,135,2.3,2.3,99,0.00,CLR,,0.02,0.0,WeatherDisplay:10.37,2013-12-08 18:18:00,
2013-12-09 04:23:00,67.5,67.2,29.91,SE,135,2.3,2.3,99,0.00,CLR,,0.02,0.0,WeatherDisplay:10.37,2013-12-08 18:23:00,
2013-12-09 04:28:00,67.6,67.3,29.90,SE,135,3.5,3.5,99,0.00,CLR,,0.02,0.0,WeatherDisplay:10.37,2013-12-08 18:28:00,
2013-12-09 04:33:00,68.2,67.9,29.90,SE,135,0.0,0.0,99,0.00,CLR,,0.02,0.0,WeatherDisplay:10.37,2013-12-08 18:33:00,
2013-12-09 04:38:00,68.2,67.9,29.90,SE,135,0.0,0.0,99,0.00,CLR,,0.02,0.0,WeatherDisplay:10.37,2013-12-08 18:38:00,
2013-12-09 04:43:00,67.6,67.3,29.90,SE,135,0.0,0.0,99,0.00,CLR,,0.02,0.0,WeatherDisplay:10.37,2013-12-08 18:43:00,
2013-12-09 04:48:00,67.8,67.5,29.91,SE,135,2.3,2.3,99,0.00,CLR,,0.02,0.0,WeatherDisplay:10.37,2013-12-08 18:48:00,
2013-12-09 04:53:00,67.5,67.2,29.91,SE,135,2.3,2.3,99,0.00,CLR,,0.02,0.0,WeatherDisplay:10.37,2013-12-08 18:53:00,
2013-12-09 04:58:00,67.8,67.5,29.91,SE,135,0.0,0.0,99,0.00,CLR,,0.02,0.0,WeatherDisplay:10.37,2013-12-08 18:58:00,
2013-12-09 05:03:00,67.6,67.3,29.90,SE,135,0.0,0.0,99,0.00,CLR,,0.02,0.0,WeatherDisplay:10.37,2013-12-08 19:03:00,
2013-12-09 05:08:00,66.9,66.6,29.91,SE,135,0.0,0.0,99,0.00,CLR,,0.02,0.0,WeatherDisplay:10.37,2013-12-08 19:08:00,
2013-12-09 05:13:00,67.1,66.8,29.91,SE,135,0.0,0.0,99,0.00,CLR,,0.02,0.0,WeatherDisplay:10.37,2013-12-08 19:13:00,
2013-12-09 05:18:00,67.1,66.8,29.91,SE,135,3.5,3.5,99,0.00,CLR,,0.02,0.0,WeatherDisplay:10.37,2013-12-08 19:18:00,
2013-12-09 05:23:00,67.5,67.2,29.91,SE,135,2.3,0.0,99,0.00,CLR,,0.02,0.0,WeatherDisplay:10.37,2013-12-08 19:23:00,
2013-12-09 05:28:00,67.1,66.8,29.91,SE,135,3.5,3.5,99,0.00,CLR,,0.02,0.0,WeatherDisplay:10.37,2013-12-08 19:28:00,
2013-12-09 05:33:00,66.9,66.6,29.91,SE,135,3.5,3.5,99,0.00,CLR,,0.02,0.3,WeatherDisplay:10.37,2013-12-08 19:33:00,
2013-12-09 05:38:00,66.7,66.5,29.91,SE,135,0.0,0.0,99,0.00,CLR,,0.02,4.0,WeatherDisplay:10.37,2013-12-08 19:38:00,
2013-12-09 05:43:00,66.2,65.9,29.92,SE,135,3.5,3.5,99,0.00,CLR,,0.02,8.3,WeatherDisplay:10.37,2013-12-08 19:43:00,
2013-12-09 05:48:00,66.6,66.3,29.92,SE,135,2.3,0.0,99,0.00,CLR,,0.02,12.7,WeatherDisplay:10.37,2013-12-08 19:48:00,
2013-12-09 05:53:00,67.1,66.8,29.92,SE,135,1.2,0.0,99,0.00,CLR,,0.02,25.3,WeatherDisplay:10.37,2013-12-08 19:53:00,
2013-12-09 05:58:00,68.0,67.7,29.93,SE,135,1.2,1.2,99,0.00,CLR,,0.02,34.1,WeatherDisplay:10.37,2013-12-08 19:58:00,
2013-12-09 06:03:00,68.7,68.4,29.92,SE,135,1.2,0.0,99,0.00,BKN,,0.02,42.6,WeatherDisplay:10.37,2013-12-08 20:03:00,
2013-12-09 06:08:00,70.2,69.6,29.93,SE,135,0.0,0.0,98,0.00,BKN,,0.02,50.6,WeatherDisplay:10.37,2013-12-08 20:08:00,
2013-12-09 06:13:00,71.8,70.9,29.93,SE,135,0.0,0.0,97,0.00,BKN,,0.02,58.7,WeatherDisplay:10.37,2013-12-08 20:13:00,
2013-12-09 06:18:00,71.8,70.9,29.93,SE,135,3.5,3.5,97,0.00,BKN,,0.02,69.2,WeatherDisplay:10.37,2013-12-08 20:18:00,
2013-12-09 06:23:00,72.3,71.1,29.93,SE,135,2.3,2.3,96,0.00,BKN,,0.02,75.9,WeatherDisplay:10.37,2013-12-08 20:23:00,
2013-12-09 06:28:00,73.9,72.4,29.93,SE,135,0.0,0.0,95,0.00,BKN,,0.02,87.0,WeatherDisplay:10.37,2013-12-08 20:28:00,
2013-12-09 06:33:00,76.6,73.5,29.93,SE,135,0.0,0.0,90,0.00,BKN,,0.02,97.0,WeatherDisplay:10.37,2013-12-08 20:33:00,
2013-12-09 06:38:00,77.2,72.3,29.93,SE,135,0.0,0.0,85,0.00,BKN,,0.02,116.9,WeatherDisplay:10.37,2013-12-08 20:38:00,
2013-12-09 06:43:00,77.7,72.5,29.93,SE,135,0.0,0.7,84,0.00,BKN,,0.02,137.4,WeatherDisplay:10.37,2013-12-08 20:43:00,
2013-12-09 06:48:00,77.7,71.8,29.93,SE,135,3.5,3.5,82,0.00,BKN,,0.02,152.9,WeatherDisplay:10.37,2013-12-08 20:48:00,
2013-12-09 06:53:00,78.8,72.8,29.93,SE,135,1.2,0.0,82,0.00,BKN,,0.02,173.9,WeatherDisplay:10.37,2013-12-08 20:53:00,
2013-12-09 06:58:00,78.8,71.0,29.94,SE,135,3.5,3.5,77,0.00,SCT,,0.02,203.1,WeatherDisplay:10.37,2013-12-08 20:58:00,
2013-12-09 07:03:00,79.5,71.7,29.93,SE,135,3.5,3.5,77,0.00,SCT,,0.02,234.2,WeatherDisplay:10.37,2013-12-08 21:03:00,
2013-12-09 07:08:00,78.3,70.5,29.94,SE,135,5.8,5.8,77,0.00,CLR,,0.02,271.6,WeatherDisplay:10.37,2013-12-08 21:08:00,
2013-12-09 07:13:00,77.2,70.5,29.94,SE,135,3.5,3.5,80,0.00,CLR,,0.02,294.7,WeatherDisplay:10.37,2013-12-08 21:13:00,
2013-12-09 07:18:00,77.5,70.5,29.94,SE,135,3.8,3.8,79,0.00,CLR,,0.02,332.4,WeatherDisplay:10.37,2013-12-08 21:18:00,
2013-12-09 07:23:00,77.2,70.5,29.94,SE,135,4.6,4.6,80,0.00,CLR,,0.02,357.0,WeatherDisplay:10.37,2013-12-08 21:23:00,
2013-12-09 07:29:00,77.2,70.9,29.94,SE,135,4.6,4.6,81,0.00,CLR,,0.02,386.7,WeatherDisplay:10.37,2013-12-08 21:29:00,
2013-12-09 07:34:00,77.2,70.5,29.95,SE,135,5.8,5.8,80,0.00,CLR,,0.02,422.5,WeatherDisplay:10.37,2013-12-08 21:34:00,
2013-12-09 07:39:00,77.5,69.8,29.95,SE,135,4.6,4.6,77,0.00,CLR,,0.02,443.8,WeatherDisplay:10.37,2013-12-08 21:39:00,
2013-12-09 07:44:00,78.3,69.7,29.95,SE,135,4.6,4.6,75,0.00,CLR,,0.02,198.0,WeatherDisplay:10.37,2013-12-08 21:44:00,
2013-12-09 07:49:00,79.2,70.5,29.95,SE,135,3.5,3.5,75,0.00,CLR,,0.02,179.0,WeatherDisplay:10.37,2013-12-08 21:49:00,
2013-12-09 07:54:00,80.8,70.9,29.95,SE,135,3.5,3.5,72,0.00,CLR,,0.02,160.0,WeatherDisplay:10.37,2013-12-08 21:54:00,
2013-12-09 07:59:00,81.3,71.0,29.95,SE,135,3.5,3.5,71,0.00,CLR,,0.02,143.0,WeatherDisplay:10.37,2013-12-08 21:59:00,
2013-12-09 08:04:00,81.5,70.3,29.94,SE,135,6.9,6.9,69,0.00,CLR,,0.02,125.0,WeatherDisplay:10.37,2013-12-08 22:04:00,
2013-12-09 08:09:00,82.2,71.0,29.95,SE,135,1.2,1.2,69,0.00,CLR,,0.02,618.4,WeatherDisplay:10.37,2013-12-08 22:09:00,
2013-12-09 08:14:00,84.4,70.4,29.95,SE,135,5.8,5.8,63,0.00,CLR,,0.02,92.0,WeatherDisplay:10.37,2013-12-08 22:14:00,
2013-12-09 08:19:00,83.3,69.4,29.95,SE,135,5.8,5.8,63,0.02,RA,,0.03,76.0,WeatherDisplay:10.37,2013-12-08 22:19:00,
2013-12-09 08:24:00,83.1,69.7,29.95,SE,135,3.5,3.5,64,0.02,RA,,0.03,60.0,WeatherDisplay:10.37,2013-12-08 22:24:00,
2013-12-09 08:29:00,83.5,69.6,29.95,SE,135,5.8,5.8,63,0.02,CLR,,0.03,45.0,WeatherDisplay:10.37,2013-12-08 22:29:00,
2013-12-09 08:34:00,82.6,69.6,29.95,SE,135,5.8,5.8,65,0.02,CLR,,0.03,782.2,WeatherDisplay:10.37,2013-12-08 22:34:00,
2013-12-09 08:39:00,81.7,69.2,29.95,SE,135,3.5,3.5,66,0.02,CLR,,0.03,17.0,WeatherDisplay:10.37,2013-12-08 22:39:00,
2013-12-09 08:44:00,84.7,71.2,29.94,SE,135,4.6,4.6,64,0.02,CLR,,0.03,3.0,WeatherDisplay:10.37,2013-12-08 22:44:00,
2013-12-09 08:49:00,86.4,70.3,29.94,SE,135,2.3,2.3,59,0.02,OVC,,0.03,888.2,WeatherDisplay:10.37,2013-12-08 22:49:00,
2013-12-09 08:54:00,87.3,69.1,29.94,SE,135,3.5,3.5,55,0.02,OVC,,0.03,913.5,WeatherDisplay:10.37,2013-12-08 22:54:00,
2013-12-09 08:59:00,86.7,69.7,29.94,SE,135,3.5,3.5,57,0.02,OVC,,0.03,949.1,WeatherDisplay:10.37,2013-12-08 22:59:00,
2013-12-09 09:04:00,86.9,69.3,29.94,SE,135,3.5,3.5,56,0.02,RA,,0.00,972.4,WeatherDisplay:10.37,2013-12-08 23:04:00,
2013-12-09 09:09:00,86.9,68.3,29.94,SE,135,5.8,5.8,54,0.02,RA,,0.00,1012.4,WeatherDisplay:10.37,2013-12-08 23:09:00,
2013-12-09 09:14:00,85.5,69.0,29.94,SE,135,5.8,5.8,58,0.02,OVC,,0.00,1054.1,WeatherDisplay:10.37,2013-12-08 23:14:00,
2013-12-09 09:19:00,86.2,68.6,29.93,SE,135,5.8,5.8,56,0.00,OVC,,0.00,1087.0,WeatherDisplay:10.37,2013-12-08 23:19:00,
2013-12-09 09:24:00,86.9,69.3,29.94,SE,135,4.6,4.6,56,0.00,OVC,,0.00,1106.0,WeatherDisplay:10.37,2013-12-08 23:24:00,
2013-12-09 09:29:00,86.2,68.6,29.93,SE,135,4.6,4.6,56,0.00,OVC,,0.00,1129.8,WeatherDisplay:10.37,2013-12-08 23:29:00,
2013-12-09 09:34:00,86.9,68.8,29.93,SE,135,4.6,4.6,55,0.00,OVC,,0.00,1148.5,WeatherDisplay:10.37,2013-12-08 23:34:00,
2013-12-09 09:39:00,86.0,66.9,29.93,SE,135,17.3,17.3,53,0.00,OVC,,0.00,1182.2,WeatherDisplay:10.37,2013-12-08 23:39:00,
2013-12-09 09:44:00,85.3,66.2,29.93,SE,135,9.2,9.2,53,0.00,OVC,,0.00,1202.6,WeatherDisplay:10.37,2013-12-08 23:44:00,
2013-12-09 09:49:00,85.1,65.5,29.93,South,180,13.8,13.8,52,0.00,OVC,,0.00,1216.8,WeatherDisplay:10.37,2013-12-08 23:49:00,
2013-12-09 09:54:00,85.6,66.0,29.93,SE,135,5.8,7.6,52,0.00,OVC,,0.00,1245.1,WeatherDisplay:10.37,2013-12-08 23:54:00,
2013-12-09 09:59:00,86.2,65.4,29.93,SE,135,11.5,11.5,50,0.00,OVC,,0.00,1267.7,WeatherDisplay:10.37,2013-12-08 23:59:00,
2013-12-09 10:04:00,86.2,67.0,29.92,South,180,9.2,9.2,53,0.00,OVC,,0.00,1304.1,WeatherDisplay:10.37,2013-12-09 00:04:00,
2013-12-09 10:09:00,86.4,66.1,29.92,South,180,8.1,8.1,51,0.00,OVC,,0.00,378.7,WeatherDisplay:10.37,2013-12-09 00:09:00,
2013-12-09 10:14:00,85.6,67.6,29.92,SE,135,3.5,3.5,55,0.00,OVC,,0.00,1417.2,WeatherDisplay:10.37,2013-12-09 00:14:00,
2013-12-09 10:19:00,86.9,67.2,29.92,SE,135,8.1,8.1,52,0.00,OVC,,0.00,1433.5,WeatherDisplay:10.37,2013-12-09 00:19:00,
2013-12-09 10:24:00,87.8,67.4,29.92,SE,135,6.9,6.9,51,0.00,OVC,,0.00,383.4,WeatherDisplay:10.37,2013-12-09 00:24:00,
2013-12-09 10:29:00,85.3,67.8,29.91,SE,135,6.9,6.9,56,0.00,OVC,,0.00,412.1,WeatherDisplay:10.37,2013-12-09 00:29:00,
2013-12-09 10:34:00,85.1,68.2,29.91,SE,135,4.6,4.6,57,0.00,OVC,,0.00,1299.2,WeatherDisplay:10.37,2013-12-09 00:34:00,
2013-12-09 10:39:00,86.9,68.8,29.91,SW,225,8.1,8.1,55,0.00,OVC,,0.00,1584.0,WeatherDisplay:10.37,2013-12-09 00:39:00,
2013-12-09 10:44:00,86.9,68.8,29.91,SW,225,10.4,10.4,55,0.00,OVC,,0.00,503.8,WeatherDisplay:10.37,2013-12-09 00:44:00,
2013-12-09 10:49:00,86.0,68.5,29.91,SW,225,9.2,9.2,56,0.00,OVC,,0.00,497.4,WeatherDisplay:10.37,2013-12-09 00:49:00,
2013-12-09 10:54:00,84.4,68.5,29.91,SW,225,12.7,12.7,59,0.00,OVC,,0.00,1555.7,WeatherDisplay:10.37,2013-12-09 00:54:00,
2013-12-09 10:59:00,86.0,70.0,29.90,South,180,8.1,8.1,59,0.00,OVC,,0.00,1508.6,WeatherDisplay:10.37,2013-12-09 00:59:00,
2013-12-09 11:04:00,86.7,67.5,29.91,South,180,10.4,10.4,53,0.00,OVC,,0.00,1514.0,WeatherDisplay:10.37,2013-12-09 01:04:00,
2013-12-09 11:09:00,86.2,67.6,29.91,South,180,16.1,16.1,54,0.00,OVC,,0.00,1509.6,WeatherDisplay:10.37,2013-12-09 01:09:00,
2013-12-09 11:14:00,86.7,69.1,29.90,SE,135,17.5,17.5,56,0.00,OVC,,0.00,1487.8,WeatherDisplay:10.37,2013-12-09 01:14:00,
2013-12-09 11:19:00,86.2,68.6,29.90,SE,135,10.4,10.4,56,0.00,OVC,,0.00,1541.0,WeatherDisplay:10.37,2013-12-09 01:19:00,
2013-12-09 11:24:00,86.5,68.5,29.90,SE,135,13.8,13.8,55,0.00,OVC,,0.00,1541.6,WeatherDisplay:10.37,2013-12-09 01:24:00,
2013-12-09 11:29:00,86.4,68.8,29.90,SE,135,17.3,17.3,56,0.00,OVC,,0.00,1554.4,WeatherDisplay:10.37,2013-12-09 01:29:00,
2013-12-09 11:34:00,87.3,68.0,29.90,SE,135,12.7,12.7,53,0.00,OVC,,0.00,1562.3,WeatherDisplay:10.37,2013-12-09 01:34:00,
2013-12-09 11:39:00,87.8,68.0,29.90,SE,135,15.0,15.0,52,0.00,OVC,,0.00,1570.5,WeatherDisplay:10.37,2013-12-09 01:39:00,
2013-12-09 11:44:00,86.9,68.3,29.90,SE,135,10.4,10.4,54,0.00,OVC,,0.00,1592.7,WeatherDisplay:10.37,2013-12-09 01:44:00,
2013-12-09 11:49:00,86.5,67.9,29.90,SE,135,4.6,9.2,54,0.00,OVC,,0.00,1583.3,WeatherDisplay:10.37,2013-12-09 01:49:00,
2013-12-09 11:54:00,87.3,66.9,29.89,SE,135,11.5,11.5,51,0.00,OVC,,0.00,1593.8,WeatherDisplay:10.37,2013-12-09 01:54:00,
2013-12-09 11:59:00,86.7,65.9,29.89,SE,135,15.0,15.0,50,0.00,OVC,,0.00,1594.5,WeatherDisplay:10.37,2013-12-09 01:59:00,
2013-12-09 12:04:00,86.9,67.7,29.89,East,90,16.1,16.1,53,0.00,OVC,,0.00,1591.7,WeatherDisplay:10.37,2013-12-09 02:04:00,
2013-12-09 12:09:00,86.5,67.4,29.89,East,90,17.3,17.3,53,0.00,OVC,,0.00,1598.9,WeatherDisplay:10.37,2013-12-09 02:09:00,
2013-12-09 12:14:00,86.9,66.6,29.89,NE,45,9.2,9.2,51,0.00,OVC,,0.00,1597.0,WeatherDisplay:10.37,2013-12-09 02:14:00,
2013-12-09 12:19:00,87.6,67.3,29.88,NE,45,12.7,12.7,51,0.00,OVC,,0.00,1610.6,WeatherDisplay:10.37,2013-12-09 02:19:00,
2013-12-09 12:24:00,88.9,67.8,29.88,NE,45,8.1,8.1,50,0.00,OVC,,0.00,1632.1,WeatherDisplay:10.37,2013-12-09 02:24:00,
2013-12-09 12:29:00,88.9,66.7,29.88,NE,45,10.7,10.7,48,0.00,OVC,,0.00,1615.5,WeatherDisplay:10.37,2013-12-09 02:29:00,
2013-12-09 12:34:00,89.4,67.1,29.88,NE,45,6.9,6.9,48,0.00,OVC,,0.00,1625.0,WeatherDisplay:10.37,2013-12-09 02:34:00,
2013-12-09 12:39:00,89.1,66.2,29.88,NE,45,12.7,12.7,47,0.00,OVC,,0.00,1613.6,WeatherDisplay:10.37,2013-12-09 02:39:00,
2013-12-09 12:44:00,88.3,66.8,29.87,NE,45,8.1,8.1,49,0.00,OVC,,0.00,1622.3,WeatherDisplay:10.37,2013-12-09 02:44:00,
2013-12-09 12:49:00,88.9,66.7,29.87,NE,45,9.2,9.2,48,0.00,OVC,,0.00,1616.4,WeatherDisplay:10.37,2013-12-09 02:49:00,
2013-12-09 12:54:00,89.2,67.0,29.87,NE,45,12.7,12.7,48,0.00,OVC,,0.00,1620.3,WeatherDisplay:10.37,2013-12-09 02:54:00,
2013-12-09 12:59:00,89.8,66.9,29.87,NE,45,9.2,9.2,47,0.00,OVC,,0.00,1597.9,WeatherDisplay:10.37,2013-12-09 02:59:00,
2013-12-09 13:04:00,88.7,67.7,29.87,SE,135,12.7,12.7,50,0.00,OVC,,0.00,1592.1,WeatherDisplay:10.37,2013-12-09 03:04:00,
2013-12-09 13:09:00,88.5,66.9,29.87,SE,135,13.8,13.8,49,0.00,OVC,,0.00,1597.1,WeatherDisplay:10.37,2013-12-09 03:09:00,
2013-12-09 13:14:00,86.9,67.7,29.86,SE,135,13.8,13.8,53,0.00,OVC,,0.00,1550.0,WeatherDisplay:10.37,2013-12-09 03:14:00,
2013-12-09 13:19:00,87.3,68.0,29.87,SE,135,12.7,12.7,53,0.00,OVC,,0.00,1612.6,WeatherDisplay:10.37,2013-12-09 03:19:00,
2013-12-09 13:24:00,87.3,68.0,29.86,SE,135,16.1,16.1,53,0.00,OVC,,0.00,1576.2,WeatherDisplay:10.37,2013-12-09 03:24:00,
2013-12-09 13:30:00,88.2,67.8,29.86,SE,135,12.7,12.7,51,0.00,OVC,,0.00,1549.2,WeatherDisplay:10.37,2013-12-09 03:30:00,
2013-12-09 13:35:00,87.6,68.4,29.86,SE,135,17.3,17.3,53,0.00,OVC,,0.00,1534.7,WeatherDisplay:10.37,2013-12-09 03:35:00,
2013-12-09 13:40:00,87.5,68.8,29.86,SE,135,10.0,17.0,54,0.00,OVC,,0.00,1591.6,WeatherDisplay:10.37,2013-12-09 03:40:00,
2013-12-09 13:45:00,88.3,68.5,29.85,SE,135,15.0,15.0,52,0.00,OVC,,0.00,1568.6,WeatherDisplay:10.37,2013-12-09 03:45:00,
2013-12-09 13:50:00,88.2,68.3,29.85,East,90,15.0,15.0,52,0.00,OVC,,0.00,1516.6,WeatherDisplay:10.37,2013-12-09 03:50:00,
2013-12-09 13:55:00,88.0,68.7,29.85,East,101,10.0,15.0,53,0.00,OVC,,0.00,1513.6,WeatherDisplay:10.37,2013-12-09 03:55:00,
2013-12-09 14:00:00,88.2,68.3,29.85,SE,135,13.8,13.8,52,0.00,OVC,,0.00,1484.7,WeatherDisplay:10.37,2013-12-09 04:00:00,
2013-12-09 14:05:00,88.6,68.7,29.85,SE,135,6.0,15.0,52,0.00,OVC,,0.00,1518.2,WeatherDisplay:10.37,2013-12-09 04:05:00,
2013-12-09 14:10:00,89.1,69.2,29.85,ESE,113,9.0,15.0,52,0.00,OVC,,0.00,1047.0,WeatherDisplay:10.37,2013-12-09 04:10:00,
2013-12-09 14:15:00,88.0,68.7,29.85,East,90,11.5,11.5,53,0.00,OVC,,0.00,1449.9,WeatherDisplay:10.37,2013-12-09 04:15:00,
2013-12-09 14:20:00,88.0,68.7,29.85,East,90,8.0,17.0,53,0.00,OVC,,0.00,1429.0,WeatherDisplay:10.37,2013-12-09 04:20:00,
2013-12-09 14:25:00,88.0,68.1,29.85,NE,45,13.8,13.8,52,0.00,OVC,,0.00,1412.3,WeatherDisplay:10.37,2013-12-09 04:25:00,
2013-12-09 14:30:00,88.2,68.9,29.85,NE,45,12.7,12.7,53,0.00,OVC,,0.00,1406.4,WeatherDisplay:10.37,2013-12-09 04:30:00,
2013-12-09 14:35:00,87.5,68.8,29.85,NE,45,8.0,17.0,54,0.00,OVC,,0.00,1384.3,WeatherDisplay:10.37,2013-12-09 04:35:00,
2013-12-09 14:40:00,87.4,68.2,29.85,North,0,12.7,12.7,53,0.00,OVC,,0.00,1376.1,WeatherDisplay:10.37,2013-12-09 04:40:00,
2013-12-09 14:45:00,87.4,68.2,29.84,North,0,12.7,12.7,53,0.00,OVC,,0.00,1349.9,WeatherDisplay:10.37,2013-12-09 04:45:00,
2013-12-09 14:50:00,88.0,68.2,29.84,North,7,10.0,15.0,52,0.00,OVC,,0.00,1345.4,WeatherDisplay:10.37,2013-12-09 04:50:00,
2013-12-09 14:55:00,86.9,68.3,29.84,NE,45,12.7,12.7,54,0.00,OVC,,0.00,1319.0,WeatherDisplay:10.37,2013-12-09 04:55:00,
2013-12-09 15:00:00,87.4,68.7,29.84,NE,45,7.0,14.0,54,0.00,OVC,,0.00,1292.6,WeatherDisplay:10.37,2013-12-09 05:00:00,
2013-12-09 15:01:00,87.6,68.9,29.84,NE,45,10.4,10.4,54,0.00,OVC,,0.00,1291.0,WeatherDisplay:10.37,2013-12-09 05:01:00,
2013-12-09 15:06:00,88.3,68.5,29.84,NE,45,12.7,12.7,52,0.00,OVC,,0.00,1256.5,WeatherDisplay:10.37,2013-12-09 05:06:00,
2013-12-09 15:11:00,88.7,68.2,29.84,NE,45,10.4,10.4,51,0.00,OVC,,0.00,1165.3,WeatherDisplay:10.37,2013-12-09 05:11:00,
2013-12-09 15:16:00,87.4,68.8,29.84,NE,45,10.4,10.4,54,0.00,OVC,,0.00,1148.6,WeatherDisplay:10.37,2013-12-09 05:16:00,
2013-12-09 15:21:00,88.2,68.3,29.84,NE,45,9.2,9.2,52,0.00,OVC,,0.00,1171.4,WeatherDisplay:10.37,2013-12-09 05:21:00,
2013-12-09 15:26:00,87.8,68.0,29.84,NE,45,12.7,12.7,52,0.00,OVC,,0.00,1083.1,WeatherDisplay:10.37,2013-12-09 05:26:00,
2013-12-09 15:31:00,87.4,68.8,29.84,NE,45,10.4,10.4,54,0.00,OVC,,0.00,1000.1,WeatherDisplay:10.37,2013-12-09 05:31:00,
2013-12-09 15:36:00,87.3,68.0,29.84,NE,45,11.5,11.5,53,0.00,OVC,,0.00,960.5,WeatherDisplay:10.37,2013-12-09 05:36:00,
2013-12-09 15:41:00,87.3,68.0,29.84,East,90,12.7,12.7,53,0.00,OVC,,0.00,910.2,WeatherDisplay:10.37,2013-12-09 05:41:00,
2013-12-09 15:46:00,87.3,68.0,29.84,East,90,16.1,16.1,53,0.00,OVC,,0.00,880.6,WeatherDisplay:10.37,2013-12-09 05:46:00,
2013-12-09 15:51:00,87.4,68.2,29.83,East,90,12.7,12.7,53,0.00,OVC,,0.00,828.9,WeatherDisplay:10.37,2013-12-09 05:51:00,
2013-12-09 15:56:00,87.8,68.0,29.83,ENE,68,8.1,8.1,52,0.00,OVC,,0.00,796.2,WeatherDisplay:10.37,2013-12-09 05:56:00,
2013-12-09 16:01:00,88.5,67.5,29.83,NE,45,9.2,9.2,50,0.00,OVC,,0.00,765.5,WeatherDisplay:10.37,2013-12-09 06:01:00,
2013-12-09 16:06:00,88.9,67.8,29.83,NE,45,10.4,10.4,50,0.00,OVC,,0.00,728.3,WeatherDisplay:10.37,2013-12-09 06:06:00,
2013-12-09 16:11:00,88.2,67.8,29.83,NE,45,10.4,10.4,51,0.00,OVC,,0.00,700.2,WeatherDisplay:10.37,2013-12-09 06:11:00,
2013-12-09 16:16:00,86.9,67.7,29.83,NE,45,9.2,9.2,53,0.00,OVC,,0.00,650.6,WeatherDisplay:10.37,2013-12-09 06:16:00,
2013-12-09 16:21:00,86.7,68.1,29.83,NE,45,12.7,12.7,54,0.00,OVC,,0.00,607.5,WeatherDisplay:10.37,2013-12-09 06:21:00,
2013-12-09 16:26:00,85.8,67.8,29.84,NE,45,9.2,9.2,55,0.00,OVC,,0.00,577.8,WeatherDisplay:10.37,2013-12-09 06:26:00,
2013-12-09 16:31:00,86.5,67.9,29.83,NNE,22,12.7,12.7,54,0.00,OVC,,0.00,557.8,WeatherDisplay:10.37,2013-12-09 06:31:00,
2013-12-09 16:36:00,86.2,67.6,29.84,NE,45,15.0,15.0,54,0.00,OVC,,0.00,533.3,WeatherDisplay:10.37,2013-12-09 06:36:00,
2013-12-09 16:41:00,85.8,68.3,29.83,North,0,9.2,9.2,56,0.00,OVC,,0.00,514.1,WeatherDisplay:10.37,2013-12-09 06:41:00,
2013-12-09 16:46:00,85.6,68.1,29.84,NNE,22,11.5,11.5,56,0.00,OVC,,0.00,508.2,WeatherDisplay:10.37,2013-12-09 06:46:00,
2013-12-09 16:51:00,85.1,67.6,29.84,North,0,12.7,12.7,56,0.00,OVC,,0.00,470.1,WeatherDisplay:10.37,2013-12-09 06:51:00,
2013-12-09 16:56:00,84.7,68.3,29.84,NE,45,12.7,12.7,58,0.00,OVC,,0.00,186.9,WeatherDisplay:10.37,2013-12-09 06:56:00,
2013-12-09 17:01:00,83.1,67.8,29.84,NE,45,13.8,13.8,60,0.00,CLR,,0.00,268.2,WeatherDisplay:10.37,2013-12-09 07:01:00,
2013-12-09 17:06:00,82.9,68.6,29.84,NE,45,10.4,11.4,62,0.00,CLR,,0.00,191.0,WeatherDisplay:10.37,2013-12-09 07:06:00,
2013-12-09 17:11:00,82.6,68.2,29.85,NE,45,12.7,12.7,62,0.00,CLR,,0.00,405.0,WeatherDisplay:10.37,2013-12-09 07:11:00,
2013-12-09 17:16:00,82.6,68.2,29.85,NE,45,11.5,11.5,62,0.00,CLR,,0.00,416.0,WeatherDisplay:10.37,2013-12-09 07:16:00,
2013-12-09 17:21:00,81.5,67.7,29.85,NE,45,13.8,13.8,63,0.00,CLR,,0.00,142.9,WeatherDisplay:10.37,2013-12-09 07:21:00,
2013-12-09 17:26:00,80.6,67.7,29.85,NE,45,15.0,15.0,65,0.00,CLR,,0.00,136.2,WeatherDisplay:10.37,2013-12-09 07:26:00,
2013-12-09 17:31:00,80.4,68.5,29.85,NE,45,13.8,13.8,67,0.00,CLR,,0.00,288.9,WeatherDisplay:10.37,2013-12-09 07:31:00,
2013-12-09 17:36:00,81.1,68.3,29.85,NE,45,11.5,11.5,65,0.00,CLR,,0.00,244.5,WeatherDisplay:10.37,2013-12-09 07:36:00,
2013-12-09 17:41:00,80.6,67.7,29.85,NE,45,15.0,15.0,65,0.00,CLR,,0.00,226.0,WeatherDisplay:10.37,2013-12-09 07:41:00,
2013-12-09 17:46:00,80.4,68.5,29.85,NE,45,12.7,12.7,67,0.00,CLR,,0.00,295.2,WeatherDisplay:10.37,2013-12-09 07:46:00,
2013-12-09 17:51:00,80.2,68.3,29.85,NE,45,15.0,15.0,67,0.00,CLR,,0.00,250.7,WeatherDisplay:10.37,2013-12-09 07:51:00,
2013-12-09 17:56:00,80.4,68.9,29.86,NE,45,12.7,12.7,68,0.00,CLR,,0.00,221.9,WeatherDisplay:10.37,2013-12-09 07:56:00,
2013-12-09 18:01:00,79.9,68.4,29.86,NE,45,11.5,11.5,68,0.00,CLR,,0.00,186.8,WeatherDisplay:10.37,2013-12-09 08:01:00,
2013-12-09 18:06:00,79.5,68.5,29.86,NE,45,10.4,10.4,69,0.00,CLR,,0.00,159.7,WeatherDisplay:10.37,2013-12-09 08:06:00,
2013-12-09 18:11:00,79.2,68.5,29.86,NE,45,9.2,9.2,70,0.00,CLR,,0.00,130.8,WeatherDisplay:10.37,2013-12-09 08:11:00,
2013-12-09 18:16:00,78.8,68.2,29.87,NE,45,12.7,12.7,70,0.00,CLR,,0.00,93.4,WeatherDisplay:10.37,2013-12-09 08:16:00,
2013-12-09 18:21:00,78.1,68.3,29.86,NE,45,16.1,16.1,72,0.00,CLR,,0.00,74.5,WeatherDisplay:10.37,2013-12-09 08:21:00,
2013-12-09 18:26:00,77.5,68.2,29.87,NE,45,11.5,11.5,73,0.00,CLR,,0.00,29.3,WeatherDisplay:10.37,2013-12-09 08:26:00,
2013-12-09 18:31:00,77.0,67.7,29.86,NE,45,11.5,11.5,73,0.00,CLR,,0.00,19.3,WeatherDisplay:10.37,2013-12-09 08:31:00,
2013-12-09 18:36:00,76.6,68.1,29.87,NE,45,8.1,8.1,75,0.00,CLR,,0.00,12.5,WeatherDisplay:10.37,2013-12-09 08:36:00,
2013-12-09 18:41:00,76.3,67.8,29.87,NE,45,12.7,12.7,75,0.00,CLR,,0.00,6.1,WeatherDisplay:10.37,2013-12-09 08:41:00,
2013-12-09 18:46:00,75.9,67.8,29.87,NE,45,12.7,12.7,76,0.00,CLR,,0.00,1.3,WeatherDisplay:10.37,2013-12-09 08:46:00,
2013-12-09 18:51:00,75.6,67.5,29.88,NE,45,9.2,9.2,76,0.00,CLR,,0.00,0.0,WeatherDisplay:10.37,2013-12-09 08:51:00,
2013-12-09 18:56:00,75.4,67.3,29.88,NE,45,8.1,8.1,76,0.00,CLR,,0.00,0.0,WeatherDisplay:10.37,2013-12-09 08:56:00,
2013-12-09 19:01:00,75.0,67.3,29.88,NE,45,10.4,10.4,77,0.00,CLR,,0.00,0.0,WeatherDisplay:10.37,2013-12-09 09:01:00,
2013-12-09 19:06:00,75.0,67.3,29.88,NE,45,9.2,9.2,77,0.00,CLR,,0.00,0.0,WeatherDisplay:10.37,2013-12-09 09:06:00,
2013-12-09 19:11:00,74.7,67.3,29.88,NE,45,8.1,8.1,78,0.00,CLR,,0.00,0.0,WeatherDisplay:10.37,2013-12-09 09:11:00,
2013-12-09 19:16:00,74.5,67.2,29.89,NE,45,4.6,4.6,78,0.00,CLR,,0.00,0.0,WeatherDisplay:10.37,2013-12-09 09:16:00,
2013-12-09 19:21:00,74.3,67.0,29.88,NE,45,9.2,9.2,78,0.00,CLR,,0.00,0.0,WeatherDisplay:10.37,2013-12-09 09:21:00,
2013-12-09 19:26:00,74.1,67.2,29.88,NE,45,8.1,8.1,79,0.00,CLR,,0.00,0.0,WeatherDisplay:10.37,2013-12-09 09:26:00,
2013-12-09 19:31:00,73.9,67.0,29.89,NE,45,6.9,6.9,79,0.00,CLR,,0.00,0.0,WeatherDisplay:10.37,2013-12-09 09:31:00,
2013-12-09 19:36:00,73.6,67.0,29.89,NE,45,4.6,4.6,80,0.00,CLR,,0.00,0.0,WeatherDisplay:10.37,2013-12-09 09:36:00,
2013-12-09 19:41:00,73.4,66.9,29.89,NE,45,4.6,4.6,80,0.00,CLR,,0.00,0.0,WeatherDisplay:10.37,2013-12-09 09:41:00,
2013-12-09 19:46:00,73.0,66.9,29.89,NE,45,3.5,3.5,81,0.00,CLR,,0.00,0.0,WeatherDisplay:10.37,2013-12-09 09:46:00,
2013-12-09 19:51:00,72.9,66.7,29.90,NE,45,3.5,3.5,81,0.00,CLR,,0.00,0.0,WeatherDisplay:10.37,2013-12-09 09:51:00,
2013-12-09 19:56:00,72.7,66.5,29.90,NE,45,3.5,3.5,81,0.00,CLR,,0.00,0.0,WeatherDisplay:10.37,2013-12-09 09:56:00,
2013-12-09 20:01:00,72.5,66.7,29.90,NE,45,4.6,4.6,82,0.00,CLR,,0.00,0.0,WeatherDisplay:10.37,2013-12-09 10:01:00,
2013-12-09 20:06:00,72.5,66.7,29.90,NE,45,3.5,3.5,82,0.00,CLR,,0.00,0.0,WeatherDisplay:10.37,2013-12-09 10:06:00,
2013-12-09 20:11:00,72.3,66.5,29.90,NE,45,2.3,2.3,82,0.00,CLR,,0.00,0.0,WeatherDisplay:10.37,2013-12-09 10:11:00,
2013-12-09 20:16:00,72.0,66.5,29.90,NE,45,2.3,2.3,83,0.00,CLR,,0.00,0.0,WeatherDisplay:10.37,2013-12-09 10:16:00,
2013-12-09 20:21:00,71.6,66.2,29.90,NE,45,3.5,3.5,83,0.00,CLR,,0.00,0.0,WeatherDisplay:10.37,2013-12-09 10:21:00,
2013-12-09 20:26:00,71.6,66.5,29.90,NE,45,3.5,3.5,84,0.00,CLR,,0.00,0.0,WeatherDisplay:10.37,2013-12-09 10:26:00,
2013-12-09 20:31:00,71.4,66.7,29.90,NE,45,4.6,4.6,85,0.00,CLR,,0.00,0.0,WeatherDisplay:10.37,2013-12-09 10:31:00,
2013-12-09 20:36:00,71.4,66.7,29.90,NE,45,3.5,3.5,85,0.00,CLR,,0.00,0.0,WeatherDisplay:10.37,2013-12-09 10:36:00,
2013-12-09 20:41:00,71.4,66.7,29.91,NE,45,3.5,3.5,85,0.00,CLR,,0.00,0.0,WeatherDisplay:10.37,2013-12-09 10:41:00,
2013-12-09 20:46:00,71.2,66.5,29.91,NE,45,2.3,2.3,85,0.00,CLR,,0.00,0.0,WeatherDisplay:10.37,2013-12-09 10:46:00,
2013-12-09 20:51:00,71.1,66.3,29.91,NE,45,3.5,3.5,85,0.00,CLR,,0.00,0.0,WeatherDisplay:10.37,2013-12-09 10:51:00,
2013-12-09 20:56:00,71.1,66.7,29.91,NE,45,2.3,2.3,86,0.00,CLR,,0.00,0.0,WeatherDisplay:10.37,2013-12-09 10:56:00,
2013-12-09 21:00:00,70.9,66.5,29.91,NE,45,2.3,2.3,86,0.00,CLR,,0.00,0.0,WeatherDisplay:10.37,2013-12-09 11:00:00,
2013-12-09 21:05:00,70.9,66.5,29.91,NE,45,3.5,3.5,86,0.00,CLR,,0.00,0.0,WeatherDisplay:10.37,2013-12-09 11:05:00,
2013-12-09 21:10:00,70.7,66.3,29.91,NE,45,2.3,2.3,86,0.00,CLR,,0.00,0.0,WeatherDisplay:10.37,2013-12-09 11:10:00,
2013-12-09 21:15:00,70.7,66.6,29.91,NE,45,1.2,1.2,87,0.00,CLR,,0.00,0.0,WeatherDisplay:10.37,2013-12-09 11:15:00,
2013-12-09 21:20:00,70.5,66.5,29.91,NE,45,1.2,1.2,87,0.00,CLR,,0.00,0.0,WeatherDisplay:10.37,2013-12-09 11:20:00,
2013-12-09 21:25:00,69.6,65.9,29.92,NE,45,1.2,1.2,88,0.00,CLR,,0.00,0.0,WeatherDisplay:10.37,2013-12-09 11:25:00,
2013-12-09 21:30:00,68.9,65.8,29.92,NE,45,0.0,0.0,90,0.00,CLR,,0.00,0.0,WeatherDisplay:10.37,2013-12-09 11:30:00,
2013-12-09 21:35:00,68.5,66.1,29.92,NE,45,0.0,0.0,92,0.00,CLR,,0.00,0.0,WeatherDisplay:10.37,2013-12-09 11:35:00,
2013-12-09 21:40:00,68.2,65.8,29.92,NE,45,0.0,0.0,92,0.00,CLR,,0.00,0.0,WeatherDisplay:10.37,2013-12-09 11:40:00,
2013-12-09 21:45:00,67.8,65.7,29.92,NE,45,0.0,0.0,93,0.00,CLR,,0.00,0.0,WeatherDisplay:10.37,2013-12-09 11:45:00,
2013-12-09 21:50:00,67.8,66.0,29.92,NE,45,0.0,0.0,94,0.00,CLR,,0.00,0.0,WeatherDisplay:10.37,2013-12-09 11:50:00,
2013-12-09 21:55:00,67.6,66.2,29.92,NE,45,0.0,0.0,95,0.00,CLR,,0.00,0.0,WeatherDisplay:10.37,2013-12-09 11:55:00,
2013-12-09 22:00:00,67.5,66.0,29.92,NE,45,0.0,0.0,95,0.00,CLR,,0.00,0.0,WeatherDisplay:10.37,2013-12-09 12:00:00,
2013-12-09 22:05:00,67.5,66.0,29.92,NE,45,2.3,0.0,95,0.00,CLR,,0.00,0.0,WeatherDisplay:10.37,2013-12-09 12:05:00,
2013-12-09 22:10:00,67.5,66.0,29.92,NE,45,0.0,0.0,95,0.00,CLR,,0.00,0.0,WeatherDisplay:10.37,2013-12-09 12:10:00,
2013-12-09 22:15:00,67.1,65.6,29.92,NE,45,0.0,0.0,95,0.00,CLR,,0.00,0.0,WeatherDisplay:10.37,2013-12-09 12:15:00,
2013-12-09 22:20:00,66.7,65.3,29.92,NE,45,1.2,0.0,95,0.00,CLR,,0.00,0.0,WeatherDisplay:10.37,2013-12-09 12:20:00,
2013-12-09 22:25:00,66.6,65.1,29.92,NE,45,0.0,0.0,95,0.00,CLR,,0.00,0.0,WeatherDisplay:10.37,2013-12-09 12:25:00,
2013-12-09 22:30:00,66.6,65.4,29.92,NE,45,0.0,0.0,96,0.00,CLR,,0.00,0.0,WeatherDisplay:10.37,2013-12-09 12:30:00,
2013-12-09 22:35:00,66.6,65.4,29.92,NE,45,0.0,0.0,96,0.00,CLR,,0.00,0.0,WeatherDisplay:10.37,2013-12-09 12:35:00,
2013-12-09 22:40:00,66.4,65.2,29.92,NE,45,0.0,0.0,96,0.00,CLR,,0.00,0.0,WeatherDisplay:10.37,2013-12-09 12:40:00,
2013-12-09 22:45:00,65.7,65.1,29.92,NE,45,0.0,0.0,98,0.00,CLR,,0.00,0.0,WeatherDisplay:10.37,2013-12-09 12:45:00,
2013-12-09 22:50:00,65.7,65.1,29.92,NE,45,0.0,0.0,98,0.00,CLR,,0.00,0.0,WeatherDisplay:10.37,2013-12-09 12:50:00,
2013-12-09 22:55:00,65.5,64.9,29.91,NE,45,0.0,0.0,98,0.00,CLR,,0.00,0.0,WeatherDisplay:10.37,2013-12-09 12:55:00,
2013-12-09 23:00:00,65.5,64.9,29.91,NE,45,0.0,0.0,98,0.00,CLR,,0.00,0.0,WeatherDisplay:10.37,2013-12-09 13:00:00,
2013-12-09 23:05:00,65.1,64.5,29.91,NE,45,0.0,0.0,98,0.00,CLR,,0.00,0.0,WeatherDisplay:10.37,2013-12-09 13:05:00,
2013-12-09 23:10:00,65.1,64.5,29.91,NE,45,0.0,0.0,98,0.00,CLR,,0.00,0.0,WeatherDisplay:10.37,2013-12-09 13:10:00,
2013-12-09 23:15:00,64.8,64.2,29.91,NE,45,0.0,0.0,98,0.00,CLR,,0.00,0.0,WeatherDisplay:10.37,2013-12-09 13:15:00,
2013-12-09 23:20:00,64.6,64.0,29.91,NE,45,0.0,0.0,98,0.00,CLR,,0.00,0.0,WeatherDisplay:10.37,2013-12-09 13:20:00,
2013-12-09 23:25:00,64.6,64.0,29.91,NE,45,0.0,0.0,98,0.00,CLR,,0.00,0.0,WeatherDisplay:10.37,2013-12-09 13:25:00,
2013-12-09 23:30:00,64.8,64.5,29.91,NE,45,0.0,0.0,99,0.00,CLR,,0.00,0.0,WeatherDisplay:10.37,2013-12-09 13:30:00,
2013-12-09 23:35:00,64.6,64.3,29.90,NE,45,0.0,0.0,99,0.00,CLR,,0.00,0.0,WeatherDisplay:10.37,2013-12-09 13:35:00,
2013-12-09 23:40:00,64.2,63.4,29.90,NE,45,0.0,0.0,97,0.00,CLR,,0.00,0.0,WeatherDisplay:10.37,2013-12-09 13:40:00,
2013-12-09 23:45:00,63.9,63.0,29.90,NE,45,0.0,0.0,97,0.00,CLR,,0.00,0.0,WeatherDisplay:10.37,2013-12-09 13:45:00,
2013-12-09 23:50:00,63.9,63.0,29.90,NE,45,0.0,0.0,97,0.00,CLR,,0.00,0.0,WeatherDisplay:10.37,2013-12-09 13:50:00,
2013-12-09 23:55:00,63.9,63.0,29.90,NE,45,0.0,0.0,97,0.00,CLR,,0.00,0.0,WeatherDisplay:10.37,2013-12-09 13:55:00,